Nearby METAR Reports

 

KSJC - San Jose, California, USA
Distance from station: NE 14km
Updated: 19/02/2019 13:53
Clear
Clear
 Wind from NNW
Wind: NNW 17 km/h
Temperature: 9°C
Wind Chill: 7°C
Dew Point: -1°C
Humidity: 50%
Barometer: 1024.4 hPa
Clouds: Clear
Visibility: 16 km
2019/02/19 17:53 KSJC 191753Z 33009KT 10SM CLR 09/M01 A3025 RMK AO2 SLP244 T00891006 10089 20006 51013
KNUQ - Moffett Nas/Mtn, California, USA
Distance from station: N 14km
Updated: 19/02/2019 13:56
Clear
Clear
 Wind from N
Wind: N 11 km/h
Temperature: 9°C
Wind Chill: 7°C
Dew Point: 1°C
Humidity: 58%
Barometer: 1024.7 hPa
Clouds: Clear
Visibility: 16 km
2019/02/19 17:56 KNUQ 191756Z 36006KT 10SM CLR 09/01 A3026 RMK AO2 SLP250 T00940006 10094 20006
 
KPAO - Palo Alto, California, USA
Distance from station: NNW 23km
Updated: 19/02/2019 13:47
Clear
Clear
 Wind from N
Wind: N 15 km/h
Barometer: 1025.1 hPa
Clouds: Clear
Visibility: 16 km
2019/02/19 17:47 KPAO 191747Z 35008KT 10SM SKC A3027
KRHV - San Jose/Reid, California, USA
Distance from station: ENE 19km
Updated: 19/02/2019 13:47
Clear
Clear
 Wind from calm
Wind: Calm
Temperature: 8°C
Dew Point: 0°C
Humidity: 57%
Barometer: 1024 hPa
Clouds: Clear
Visibility: 16 km
2019/02/19 17:47 KRHV 191747Z 00000KT 10SM SKC 08/00 A3024
 
KOAK - Oakland, California, USA
Distance from station: NNW 50km
Updated: 19/02/2019 13:53
Clear
Clear
 Wind from SSW
Wind: SSW 7 km/h
Temperature: 9°C
Wind Chill: 8°C
Dew Point: 0°C
Humidity: 54%
Barometer: 1024.7 hPa
Clouds: Clear
Visibility: 16 km
2019/02/19 17:53 KOAK 191753Z 20004KT 10SM CLR 09/00 A3026 RMK AO2 SLP246 T00940000 10100 20011 51013
KSQL - San Carlos Airpo, California, USA
Distance from station: NW 34km
Updated: 19/02/2019 13:49
Clear
Clear
 Wind from N
Wind: N 13 km/h
Temperature: 9°C
Wind Chill: 7°C
Dew Point: -1°C
Humidity: 50%
Barometer: 1024.7 hPa
Clouds: Clear
Visibility: 16 km
2019/02/19 17:49 KSQL 191749Z 35007KT 10SM SKC 09/M01 A3026
 
KSFO - San Francisco, California, USA
Distance from station: NW 49km
Updated: 19/02/2019 13:56
Clear
Clear
 Wind from N
Wind: N 17 km/h
Temperature: 10°C
Wind Chill: 8°C
Dew Point: 0°C
Humidity: 50%
Barometer: 1024.4 hPa
Clouds: Clear
Visibility: 16 km
2019/02/19 17:56 KSFO 191756Z 36009KT 10SM CLR 10/00 A3025 RMK AO2 SLP243 T01000000 10106 20033 51013
KE16 - San Martin, California, USA
Distance from station: ESE 43km
Updated: 19/02/2019 13:55
Clear
Clear
 Wind from calm
Wind: Calm
Temperature: 5°C
Dew Point: 0°C
Humidity: 70%
Barometer: 1024.7 hPa
Clouds: Clear
Visibility: 16 km
2019/02/19 17:55 KE16 191755Z AUTO 00000KT 10SM CLR 05/00 A3026 RMK AO2 PWINO PNO
 
KWVI - Watsonville, California, USA
Distance from station: SSE 44km
Updated: 19/02/2019 13:53
Clear
Clear
 Wind from calm
Wind: Calm
Temperature: 8°C
Dew Point: 0°C
Humidity: 57%
Barometer: 1024.4 hPa
Clouds: Clear
Visibility: 16 km
2019/02/19 17:53 KWVI 191753Z AUTO 00000KT 10SM CLR 08/00 A3025 RMK AO2 SLP242 T00780000 10078 21011 51010
KHAF - Half Moon Bay, California, USA
Distance from station: WNW 50km
Updated: 13/02/2019 18:15
NOT Current
Light rain, Overcast
Light rain, Overcast
 Wind from S
Wind: S 54 km/h, Gust: 69 km/h
Temperature: 13°C
Dew Point: 12°C
Humidity: 94%
Barometer: 1000.3 hPa
Summary: Light rain
Clouds: Overcast
Visibility: 1.2 km
Cloud details: Overcast 213 m
2019/02/13 22:15 KHAF 132215Z AUTO 17029G37KT 3/4SM -RA OVC007 13/12 A2954 RMK AO2
 
KHWD - Hayward, California, USA
Distance from station: N 44km
Updated: 19/02/2019 13:54
Clear
Clear
 Wind from calm
Wind: Calm
Temperature: 11°C
Dew Point: -2°C
Humidity: 41%
Barometer: 1024.4 hPa
Clouds: Clear
Visibility: 16 km
2019/02/19 17:54 KHWD 191754Z 00000KT 10SM CLR 11/M02 A3025 RMK AO2 SLP253 T01061017 10106 20017 51011
KLVK - Livermore, California, USA
Distance from station: NNE 51km
Updated: 19/02/2019 13:53
Clear
Clear
 Wind from SSW
Wind: SSW 6 km/h
Temperature: 6°C
Dew Point: 0°C
Humidity: 66%
Barometer: 1024 hPa
Clouds: Clear
Visibility: 16 km
2019/02/19 17:53 KLVK 191753Z AUTO 20003KT 10SM CLR 06/00 A3024 RMK AO2 SLP242 T00610000 10061 21028 51010 $